Time;durP1;ratioP1;P1;durP2;ratioP2;P2;SDS_P1;SDS_P2;PMS_P1;PMS_P2;Temp;Humidity;BMP_temperature;BMP_pressure;BME280_temperature;BME280_humidity;BME280_pressure;Samples;Min_cycle;Max_cycle;Signal;HPM_P1;HPM_P2
2023/01/13 00:00:47;;;;;;;11.83;5.00;;;6.20;99.90;;;;;;10440622;28;20048;-77
2023/01/13 00:05:47;;;;;;;9.23;4.87;;;6.20;99.90;;;;;;10440367;28;20043;-77
2023/01/13 00:10:48;;;;;;;10.63;5.57;;;6.20;99.90;;;;;;10441449;28;20499;-77
2023/01/13 00:15:58;;;;;;;13.87;6.53;;;6.20;99.90;;;;;;10440030;28;20104;-77
2023/01/13 00:21:05;;;;;;;12.90;6.47;;;6.30;99.90;;;;;;10441083;28;20033;-79
2023/01/13 00:26:09;;;;;;;9.27;6.07;;;6.20;99.90;;;;;;10446253;28;20603;-77
2023/01/13 00:31:15;;;;;;;11.27;5.27;;;6.20;99.90;;;;;;10438670;28;20029;-77
2023/01/13 00:36:18;;;;;;;9.07;4.57;;;6.20;99.90;;;;;;10448638;28;20060;-78
2023/01/13 00:41:21;;;;;;;10.63;4.87;;;6.30;99.90;;;;;;10446527;28;20036;-78
2023/01/13 00:46:21;;;;;;;9.50;4.17;;;6.40;99.90;;;;;;10446996;28;20074;-78
2023/01/13 00:51:22;;;;;;;7.40;3.97;;;6.40;99.90;;;;;;10446852;28;20093;-77
2023/01/13 00:56:24;;;;;;;9.30;4.47;;;6.50;99.90;;;;;;10447126;28;20044;-78
2023/01/13 01:01:25;;;;;;;7.23;3.67;;;6.50;99.90;;;;;;10446904;28;20044;-78
2023/01/13 01:06:26;;;;;;;8.30;4.57;;;6.50;99.90;;;;;;10446224;28;20254;-77
2023/01/13 01:11:29;;;;;;;6.97;3.20;;;6.50;99.90;;;;;;10446408;28;20537;-77
2023/01/13 01:16:32;;;;;;;6.63;3.50;;;6.50;99.90;;;;;;10445963;28;20044;-79
2023/01/13 01:21:33;;;;;;;7.10;3.90;;;6.50;99.90;;;;;;10446459;28;20047;-78
2023/01/13 01:26:33;;;;;;;7.40;4.70;;;6.50;99.90;;;;;;10437497;28;20056;-78
2023/01/13 01:31:34;;;;;;;6.93;5.37;;;6.60;99.90;;;;;;10445063;28;20033;-79
2023/01/13 01:36:35;;;;;;;10.57;3.57;;;6.60;99.90;;;;;;10446101;28;20476;-77
2023/01/13 01:41:36;;;;;;;8.47;4.33;;;6.60;99.90;;;;;;10445080;28;20049;-79
2023/01/13 01:46:42;;;;;;;7.00;3.83;;;6.60;99.90;;;;;;10444410;28;20032;-77
2023/01/13 01:52:15;;;;;;;11.27;5.80;;;6.70;99.90;;;;;;10436267;28;20401;-77
2023/01/13 01:57:29;;;;;;;8.70;4.57;;;6.70;99.90;;;;;;10426264;28;20227;-79
2023/01/13 02:02:30;;;;;;;9.93;4.63;;;6.70;99.90;;;;;;10443788;28;20040;-77
2023/01/13 02:07:33;;;;;;;9.90;4.77;;;6.70;99.90;;;;;;10443640;28;20037;-78
2023/01/13 02:12:35;;;;;;;6.80;3.80;;;6.70;99.90;;;;;;10443239;28;20017;-77
2023/01/13 02:18:13;;;;;;;8.30;5.50;;;6.80;99.90;;;;;;10442914;28;20037;-78
2023/01/13 02:35:20;;;;;;;9.53;3.97;;;6.60;99.90;;;;;;10428327;28;20532;-77
2023/01/13 02:40:47;;;;;;;8.00;4.97;;;6.50;99.90;;;;;;10442589;28;20098;-79
2023/01/13 02:46:03;;;;;;;8.07;4.43;;;6.40;99.90;;;;;;10431189;28;20049;-79
2023/01/13 02:51:08;;;;;;;9.47;6.97;;;6.30;99.90;;;;;;10442879;28;20033;-78
2023/01/13 02:56:12;;;;;;;8.50;5.63;;;6.30;99.90;;;;;;10442210;28;20090;-77
2023/01/13 03:01:13;;;;;;;8.73;4.13;;;6.30;99.90;;;;;;10441839;28;20069;-79
2023/01/13 03:06:28;;;;;;;9.97;5.10;;;6.40;99.90;;;;;;10437288;28;20108;-77
2023/01/13 03:11:38;;;;;;;6.28;4.22;;;6.30;99.90;;;;;;10437569;28;20033;-78
2023/01/13 03:17:05;;;;;;;8.13;4.87;;;6.30;99.90;;;;;;10424187;28;20028;-79
2023/01/13 03:22:26;;;;;;;10.87;6.43;;;6.20;99.90;;;;;;10441672;28;20052;-78
2023/01/13 03:27:27;;;;;;;10.10;5.93;;;6.20;99.90;;;;;;10427973;28;20505;-77
2023/01/13 03:32:39;;;;;;;9.73;6.47;;;6.30;99.90;;;;;;10441885;28;20056;-77
2023/01/13 03:37:48;;;;;;;9.13;5.10;;;6.30;99.90;;;;;;10440545;28;20033;-77
2023/01/13 03:48:19;;;;;;;8.00;5.18;;;6.30;99.90;;;;;;10440800;28;20041;-79
2023/01/13 03:53:25;;;;;;;9.67;5.83;;;6.20;99.90;;;;;;10441138;28;20435;-77
2023/01/13 03:58:32;;;;;;;10.50;6.20;;;6.20;99.90;;;;;;10449404;28;20032;-79
2023/01/13 04:03:52;;;;;;;8.43;4.90;;;6.10;99.90;;;;;;10448229;28;20074;-79
2023/01/13 04:09:01;;;;;;;11.00;6.37;;;6.10;99.90;;;;;;10467654;23;20138;-78
2023/01/13 04:14:04;;;;;;;13.40;5.97;;;6.10;99.90;;;;;;10436657;28;20017;-79
2023/01/13 04:19:05;;;;;;;9.83;4.90;;;6.10;99.90;;;;;;10433627;28;20120;-78
2023/01/13 04:24:08;;;;;;;7.70;4.00;;;6.10;99.90;;;;;;10426234;28;20056;-76
2023/01/13 04:29:08;;;;;;;7.40;4.87;;;6.10;99.90;;;;;;10421544;28;20031;-77
2023/01/13 04:34:10;;;;;;;9.77;4.80;;;6.20;99.90;;;;;;10429751;28;20059;-77
2023/01/13 04:39:11;;;;;;;7.93;4.40;;;6.30;99.90;;;;;;10436576;28;20492;-77
2023/01/13 04:44:12;;;;;;;10.70;4.80;;;6.40;99.90;;;;;;10434092;28;20033;-78
2023/01/13 04:49:12;;;;;;;7.73;4.57;;;6.50;99.90;;;;;;10443821;28;20408;-77
2023/01/13 04:54:13;;;;;;;8.80;5.50;;;6.50;99.90;;;;;;10445706;28;20037;-77
2023/01/13 04:59:13;;;;;;;10.27;5.13;;;6.60;99.90;;;;;;10447620;28;20404;-78
2023/01/13 05:04:14;;;;;;;8.43;4.50;;;6.60;99.90;;;;;;10446968;28;20873;-77
2023/01/13 05:09:15;;;;;;;8.53;5.10;;;6.80;99.90;;;;;;10483439;28;20056;-77
2023/01/13 05:19:39;;;;;;;12.37;6.43;;;6.80;99.90;;;;;;10465100;28;20048;-76
2023/01/13 05:30:00;;;;;;;9.40;5.93;;;6.80;99.90;;;;;;10480631;28;20344;-76
2023/01/13 05:35:01;;;;;;;11.93;5.60;;;6.80;99.90;;;;;;10468128;28;20032;-76
2023/01/13 05:45:21;;;;;;;15.23;7.67;;;6.80;99.90;;;;;;10481874;28;20033;-78
2023/01/13 05:50:21;;;;;;;19.03;8.77;;;6.80;99.90;;;;;;10486786;28;20024;-77
2023/01/13 05:55:22;;;;;;;15.97;7.63;;;6.80;99.90;;;;;;10486810;28;20063;-77
2023/01/13 06:00:23;;;;;;;30.20;18.37;;;6.80;99.90;;;;;;10465856;28;20494;-77
2023/01/13 06:05:23;;;;;;;67.77;29.90;;;6.80;99.90;;;;;;10480831;28;20112;-77
2023/01/13 06:10:25;;;;;;;70.00;26.40;;;6.80;99.90;;;;;;10485881;28;20033;-78
2023/01/13 06:15:25;;;;;;;44.00;19.50;;;6.80;99.90;;;;;;10485002;28;20031;-78
2023/01/13 06:20:26;;;;;;;39.63;17.53;;;6.90;99.90;;;;;;10484940;28;20033;-79
2023/01/13 06:25:35;;;;;;;19.97;9.53;;;6.90;99.90;;;;;;10485310;28;20089;-77
2023/01/13 06:30:41;;;;;;;39.83;15.87;;;6.90;99.90;;;;;;10485705;28;20024;-78
2023/01/13 06:35:45;;;;;;;17.02;6.93;;;6.90;99.90;;;;;;10484813;28;20028;-79
2023/01/13 06:40:46;;;;;;;16.90;7.57;;;6.90;99.90;;;;;;10484343;28;20070;-76
2023/01/13 06:45:53;;;;;;;19.37;9.77;;;6.90;99.90;;;;;;10484120;28;20032;-77
2023/01/13 06:50:54;;;;;;;30.63;12.13;;;6.90;99.90;;;;;;10484545;28;20028;-78
2023/01/13 06:55:55;;;;;;;20.37;9.10;;;6.80;99.90;;;;;;10485260;28;20025;-77
2023/01/13 07:00:59;;;;;;;15.57;8.47;;;6.90;99.90;;;;;;10484616;28;20040;-78
2023/01/13 07:06:00;;;;;;;15.73;8.07;;;6.90;99.90;;;;;;10483262;28;20082;-75
2023/01/13 07:11:02;;;;;;;16.93;7.77;;;6.80;99.90;;;;;;10484467;28;20438;-77
2023/01/13 07:16:05;;;;;;;22.63;10.53;;;6.80;99.90;;;;;;10483647;28;20029;-78
2023/01/13 07:21:08;;;;;;;16.27;8.83;;;6.80;99.90;;;;;;10483549;28;20040;-79
2023/01/13 07:26:09;;;;;;;16.90;7.53;;;6.70;99.90;;;;;;10483117;28;20784;-79
2023/01/13 07:31:19;;;;;;;16.30;8.57;;;6.70;99.90;;;;;;10483626;28;20670;-78
2023/01/13 07:36:20;;;;;;;14.87;7.13;;;6.70;99.90;;;;;;10483726;28;20559;-77
2023/01/13 07:46:40;;;;;;;11.87;7.73;;;6.80;99.90;;;;;;10483149;28;20045;-79
2023/01/13 07:51:40;;;;;;;17.27;8.17;;;6.80;99.90;;;;;;10482473;28;20029;-77
2023/01/13 07:56:41;;;;;;;17.27;8.73;;;6.80;99.90;;;;;;10482542;28;20032;-77
2023/01/13 08:01:41;;;;;;;21.70;9.90;;;6.80;99.90;;;;;;10482905;28;20044;-76
2023/01/13 08:06:42;;;;;;;19.90;9.67;;;6.90;99.90;;;;;;10482501;28;20430;-77
2023/01/13 08:11:43;;;;;;;16.30;8.03;;;7.00;99.90;;;;;;10482519;28;20400;-77
2023/01/13 08:16:43;;;;;;;21.37;10.87;;;7.10;99.90;;;;;;10482671;28;20036;-77
2023/01/13 08:21:44;;;;;;;21.13;10.30;;;7.10;99.90;;;;;;10482675;28;20473;-79
2023/01/13 08:26:44;;;;;;;20.20;10.40;;;7.10;99.90;;;;;;10483278;28;20061;-78
2023/01/13 08:31:45;;;;;;;17.43;8.27;;;7.20;99.90;;;;;;10482611;28;20036;-78
2023/01/13 08:36:48;;;;;;;20.67;10.23;;;7.30;99.90;;;;;;10482310;28;20021;-79
2023/01/13 08:41:55;;;;;;;14.97;8.53;;;7.30;99.90;;;;;;10486941;28;20076;-76
2023/01/13 08:46:56;;;;;;;20.47;10.53;;;7.40;99.90;;;;;;10489635;28;20036;-76
2023/01/13 08:51:56;;;;;;;21.00;10.93;;;7.40;99.90;;;;;;10489643;28;20275;-77
2023/01/13 08:56:57;;;;;;;21.80;11.23;;;7.40;99.90;;;;;;10488487;28;20036;-77
2023/01/13 09:01:57;;;;;;;19.30;9.93;;;7.50;99.90;;;;;;10489322;28;20040;-77
2023/01/13 09:06:58;;;;;;;18.00;9.20;;;7.50;99.90;;;;;;10488817;28;20110;-77
2023/01/13 09:17:18;;;;;;;15.17;7.53;;;7.90;99.90;;;;;;10489286;28;20041;-77
2023/01/13 09:22:19;;;;;;;20.10;10.07;;;8.30;99.90;;;;;;10488713;28;20036;-78
2023/01/13 09:27:21;;;;;;;17.17;8.40;;;8.60;99.90;;;;;;10488180;28;20056;-77
2023/01/13 09:32:21;;;;;;;17.00;7.27;;;8.70;99.90;;;;;;10488413;28;20459;-77
2023/01/13 09:37:22;;;;;;;16.93;8.77;;;8.70;99.90;;;;;;10488439;28;20103;-78
2023/01/13 09:48:25;;;;;;;16.20;7.73;;;8.80;99.90;;;;;;10488102;28;20194;-79
2023/01/13 09:53:32;;;;;;;13.67;7.37;;;8.70;99.90;;;;;;10485989;28;20032;-77
2023/01/13 09:58:33;;;;;;;20.90;12.27;;;8.80;99.90;;;;;;10486743;28;20491;-76
2023/01/13 10:03:34;;;;;;;72.47;46.63;;;8.70;99.90;;;;;;10486270;28;20043;-76
2023/01/13 10:08:41;;;;;;;41.57;18.43;;;8.80;99.90;;;;;;10486118;28;20087;-77
2023/01/13 10:13:42;;;;;;;28.90;22.87;;;8.80;99.90;;;;;;10485902;28;20414;-77
2023/01/13 10:18:59;;;;;;;27.50;12.13;;;8.90;99.90;;;;;;10485719;28;20024;-79
2023/01/13 10:24:06;;;;;;;19.87;12.00;;;8.90;99.90;;;;;;10486493;28;20036;-77
2023/01/13 10:29:24;;;;;;;16.73;9.60;;;9.00;99.90;;;;;;10486091;28;20028;-76
2023/01/13 10:34:26;;;;;;;18.10;8.93;;;9.30;99.90;;;;;;10472561;28;20032;-77
2023/01/13 10:39:38;;;;;;;16.20;8.00;;;9.50;99.90;;;;;;10485457;28;20384;-77
2023/01/13 10:44:56;;;;;;;12.17;6.40;;;9.70;99.90;;;;;;10485495;28;20033;-78
2023/01/13 10:50:05;;;;;;;10.90;5.27;;;9.70;99.90;;;;;;10485071;28;20086;-78
2023/01/13 10:55:32;;;;;;;12.60;6.40;;;9.80;99.90;;;;;;10485206;28;20035;-77
2023/01/13 11:00:33;;;;;;;10.40;5.10;;;9.80;99.90;;;;;;10484567;28;20373;-79
2023/01/13 11:05:35;;;;;;;11.95;5.38;;;9.80;99.90;;;;;;10484401;28;20135;-77
2023/01/13 11:10:45;;;;;;;12.95;6.10;;;9.90;99.90;;;;;;10485347;28;20017;-77
2023/01/13 11:15:54;;;;;;;15.57;5.47;;;9.90;99.90;;;;;;10484016;28;20039;-79
2023/01/13 11:20:56;;;;;;;58.75;29.25;;;9.90;99.90;;;;;;10484064;28;20110;-77
2023/01/13 11:26:13;;;;;;;51.25;18.90;;;9.90;99.90;;;;;;10484209;28;20024;-77
2023/01/13 11:31:29;;;;;;;71.95;23.63;;;9.80;99.90;;;;;;10484086;28;20025;-79
2023/01/13 11:36:42;;;;;;;74.22;24.58;;;9.90;99.90;;;;;;10472478;28;20051;-77
2023/01/13 11:42:19;;;;;;;11.50;5.60;;;10.00;99.90;;;;;;10484297;28;20042;-78
2023/01/13 11:47:13;;;;;;;17.63;8.50;;;9.90;99.90;;;;;;10483252;28;20040;-78
2023/01/13 11:52:24;;;;;;;13.43;6.03;;;9.90;99.90;;;;;;10483354;28;20543;-77
2023/01/13 11:57:54;;;;;;;14.87;7.80;;;9.80;99.90;;;;;;10483290;28;20040;-78
2023/01/13 12:03:16;;;;;;;15.37;7.17;;;9.70;99.90;;;;;;10465262;28;20427;-79
2023/01/13 12:08:29;;;;;;;13.23;6.63;;;9.70;99.90;;;;;;10482779;28;20533;-78
2023/01/13 12:13:36;;;;;;;22.63;10.40;;;9.60;99.90;;;;;;10483527;28;20032;-77
2023/01/13 12:18:55;;;;;;;20.77;11.87;;;9.70;99.90;;;;;;10491118;28;20032;-76
2023/01/13 12:24:02;;;;;;;24.67;12.52;;;9.70;99.90;;;;;;10491244;28;20037;-77
2023/01/13 12:29:05;;;;;;;26.77;11.77;;;9.60;99.90;;;;;;10491324;28;20060;-77
2023/01/13 12:34:34;;;;;;;15.83;7.73;;;9.50;99.90;;;;;;10491342;28;20439;-77
2023/01/13 12:39:41;;;;;;;14.70;7.10;;;9.50;99.90;;;;;;10490174;28;20035;-76
2023/01/13 12:45:18;;;;;;;15.70;7.73;;;9.40;99.90;;;;;;10490673;28;20065;-79
2023/01/13 12:50:35;;;;;;;17.70;7.70;;;9.40;99.90;;;;;;10489774;28;20044;-77
2023/01/13 12:55:35;;;;;;;14.10;6.47;;;9.30;99.90;;;;;;10490285;28;20078;-76
2023/01/13 13:00:52;;;;;;;14.32;7.13;;;9.30;99.90;;;;;;10489484;28;20692;-79
2023/01/13 13:06:11;;;;;;;15.97;8.33;;;9.30;99.90;;;;;;10489683;28;20402;-77
2023/01/13 13:13:16;;;;;;;21.47;11.20;;;9.30;99.90;;;;;;10487174;28;20468;-76
2023/01/13 13:16:48;;;;;;;17.27;8.57;;;9.30;99.90;;;;;;10486397;28;20395;-77
2023/01/13 13:22:15;;;;;;;15.68;7.97;;;9.40;99.90;;;;;;10487791;28;20683;-78
2023/01/13 13:27:39;;;;;;;48.87;23.53;;;9.40;99.90;;;;;;10487519;28;20480;-77
2023/01/13 13:32:58;;;;;;;83.07;42.63;;;9.40;99.90;;;;;;10488200;28;20040;-77
2023/01/13 13:49:01;;;;;;;28.02;12.32;;;9.30;99.90;;;;;;10485751;28;20055;-77
2023/01/13 13:54:03;;;;;;;30.03;13.47;;;9.30;99.90;;;;;;10485786;28;20036;-76
2023/01/13 13:59:04;;;;;;;20.37;9.97;;;9.20;99.90;;;;;;10485607;28;20032;-76
2023/01/13 14:04:34;;;;;;;29.57;13.37;;;9.10;99.90;;;;;;10484801;28;20476;-77
2023/01/13 14:09:46;;;;;;;20.57;10.50;;;9.00;99.90;;;;;;10482862;28;20055;-76
2023/01/13 14:14:48;;;;;;;21.70;10.60;;;8.90;99.90;;;;;;10486112;28;20457;-80
2023/01/13 14:20:06;;;;;;;21.40;10.30;;;8.80;99.90;;;;;;10477443;28;20438;-78
2023/01/13 14:25:28;;;;;;;28.20;13.20;;;8.60;99.90;;;;;;10475147;28;20384;-78
2023/01/13 14:30:29;;;;;;;371.03;201.87;;;8.60;99.90;;;;;;10485452;28;20024;-77
2023/01/13 14:35:29;;;;;;;67.83;27.23;;;8.50;99.90;;;;;;10485868;28;20024;-77
2023/01/13 14:40:35;;;;;;;249.67;87.67;;;8.50;99.90;;;;;;10484370;28;20418;-77
2023/01/13 14:45:35;;;;;;;96.53;37.15;;;8.50;99.90;;;;;;10485059;28;20676;-79
2023/01/13 14:50:37;;;;;;;100.83;36.93;;;8.40;99.90;;;;;;10484082;28;20146;-77
2023/01/13 14:55:39;;;;;;;81.90;32.63;;;8.40;99.90;;;;;;10483765;28;20040;-77
2023/01/13 15:00:39;;;;;;;56.00;22.63;;;8.30;99.90;;;;;;10484569;28;20068;-77
2023/01/13 15:05:46;;;;;;;95.80;37.13;;;8.30;99.90;;;;;;10483880;28;20190;-79
2023/01/13 15:11:00;;;;;;;100.77;39.77;;;8.20;99.90;;;;;;10484135;28;20024;-77
2023/01/13 15:16:16;;;;;;;111.40;40.50;;;8.20;99.90;;;;;;10483831;28;20028;-77
2023/01/13 15:21:17;;;;;;;140.98;62.78;;;8.10;99.90;;;;;;10484076;28;20041;-77
2023/01/13 15:26:23;;;;;;;114.30;47.93;;;8.00;99.90;;;;;;10483799;28;20063;-79
2023/01/13 15:31:25;;;;;;;176.50;63.90;;;8.00;99.90;;;;;;10484126;28;20037;-77
2023/01/13 15:36:28;;;;;;;122.30;48.50;;;7.90;99.90;;;;;;10483252;28;20028;-78
2023/01/13 15:46:50;;;;;;;64.63;30.20;;;7.90;99.90;;;;;;10483186;28;20036;-78
2023/01/13 15:51:50;;;;;;;68.17;26.00;;;7.80;99.90;;;;;;10490948;28;20028;-77
2023/01/13 15:56:52;;;;;;;83.33;33.00;;;7.80;99.90;;;;;;10491909;28;20032;-77
2023/01/13 16:01:52;;;;;;;76.13;30.63;;;7.70;99.90;;;;;;10491315;28;20048;-78
2023/01/13 16:06:54;;;;;;;42.53;18.17;;;7.70;99.90;;;;;;10491034;28;20495;-77
2023/01/13 16:11:54;;;;;;;35.20;14.57;;;7.70;99.90;;;;;;10490986;28;20097;-78
2023/01/13 16:16:55;;;;;;;32.37;13.50;;;7.80;99.90;;;;;;10490779;28;20481;-79
2023/01/13 16:21:58;;;;;;;30.17;12.33;;;7.90;99.90;;;;;;10490762;28;20036;-77
2023/01/13 16:26:59;;;;;;;20.67;8.50;;;7.90;99.90;;;;;;10490001;28;20059;-79
2023/01/13 16:31:59;;;;;;;16.13;7.40;;;7.90;99.90;;;;;;10491016;28;20058;-79
2023/01/13 16:37:00;;;;;;;25.83;10.70;;;8.00;99.90;;;;;;10490044;28;20085;-77
2023/01/13 16:42:00;;;;;;;23.90;9.53;;;7.90;99.90;;;;;;10490115;28;20488;-77
2023/01/13 16:47:01;;;;;;;29.57;13.70;;;7.90;99.90;;;;;;10490334;28;20086;-78
2023/01/13 16:52:01;;;;;;;32.33;12.47;;;7.90;99.90;;;;;;10489034;28;20028;-78
2023/01/13 16:57:02;;;;;;;18.13;9.07;;;7.90;99.90;;;;;;10489628;28;20032;-78
2023/01/13 17:02:04;;;;;;;34.40;14.93;;;7.90;99.90;;;;;;10488297;28;20072;-78
2023/01/13 17:07:09;;;;;;;43.33;18.63;;;7.90;99.90;;;;;;10487399;28;20056;-79
2023/01/13 17:12:10;;;;;;;39.23;16.57;;;7.80;99.90;;;;;;10488141;28;20107;-78
2023/01/13 17:17:23;;;;;;;65.67;26.60;;;7.80;99.90;;;;;;10488287;28;20042;-78
2023/01/13 17:22:23;;;;;;;56.33;24.40;;;7.70;99.90;;;;;;10488368;28;20090;-78
2023/01/13 17:27:24;;;;;;;38.40;17.13;;;7.70;99.90;;;;;;10487250;28;20118;-77
2023/01/13 17:32:25;;;;;;;34.70;15.10;;;7.60;99.90;;;;;;10486682;28;20037;-79
2023/01/13 17:37:25;;;;;;;56.67;25.27;;;7.60;99.90;;;;;;10487398;28;20040;-76
2023/01/13 17:42:28;;;;;;;40.70;18.63;;;7.50;99.90;;;;;;10486216;28;20044;-78
2023/01/13 17:47:29;;;;;;;43.40;20.23;;;7.50;99.90;;;;;;10472458;28;20082;-81
2023/01/13 17:52:30;;;;;;;31.87;15.40;;;7.50;99.90;;;;;;10486307;28;20090;-78
2023/01/13 17:57:30;;;;;;;26.30;11.97;;;7.40;99.90;;;;;;10486390;28;20032;-78
2023/01/13 18:02:32;;;;;;;33.67;14.17;;;7.40;99.90;;;;;;10468110;28;20044;-78
2023/01/13 18:07:32;;;;;;;46.30;22.00;;;7.30;99.90;;;;;;10485954;28;20054;-77
2023/01/13 18:12:33;;;;;;;31.83;16.83;;;7.30;99.90;;;;;;10485417;28;20690;-78
2023/01/13 18:17:34;;;;;;;131.20;53.20;;;7.30;99.90;;;;;;10484762;28;20029;-80
2023/01/13 18:27:53;;;;;;;40.27;21.03;;;7.20;99.90;;;;;;10478326;28;20048;-78
2023/01/13 18:32:54;;;;;;;29.10;17.10;;;7.10;99.90;;;;;;10466617;28;20032;-79
2023/01/13 18:37:55;;;;;;;31.03;16.47;;;7.00;99.90;;;;;;10484615;28;20080;-78
2023/01/13 18:42:57;;;;;;;29.90;15.83;;;6.90;99.90;;;;;;10468989;28;20553;-82
2023/01/13 18:48:01;;;;;;;32.37;16.93;;;6.90;99.90;;;;;;10484299;28;20025;-81
2023/01/13 18:53:02;;;;;;;37.57;18.40;;;6.90;99.90;;;;;;10498612;22;20060;-78
2023/01/13 18:58:03;;;;;;;31.27;16.03;;;6.90;99.90;;;;;;10483540;28;20050;-78
2023/01/13 19:03:04;;;;;;;37.67;16.80;;;6.80;99.90;;;;;;10482791;28;20400;-79
2023/01/13 19:08:05;;;;;;;35.07;18.00;;;6.80;99.90;;;;;;10484143;28;20029;-81
2023/01/13 19:13:05;;;;;;;35.07;15.93;;;6.80;99.90;;;;;;10483198;28;20036;-79
2023/01/13 19:18:06;;;;;;;271.13;127.33;;;6.70;99.90;;;;;;10482248;28;20568;-81
2023/01/13 19:23:07;;;;;;;51.67;25.00;;;6.70;99.90;;;;;;10483741;28;20181;-81
2023/01/13 19:28:07;;;;;;;69.90;34.47;;;6.60;99.90;;;;;;10482940;28;20037;-78
2023/01/13 19:33:08;;;;;;;196.80;99.70;;;6.70;99.90;;;;;;10482439;28;20032;-78
2023/01/13 19:38:08;;;;;;;143.07;59.43;;;6.70;99.90;;;;;;10483006;28;20428;-78
2023/01/13 19:48:29;;;;;;;45.63;21.70;;;6.60;99.90;;;;;;10477154;28;20396;-78
2023/01/13 19:53:30;;;;;;;42.73;20.53;;;6.60;99.90;;;;;;10470651;28;20055;-80
2023/01/13 19:58:31;;;;;;;44.07;18.17;;;6.60;99.90;;;;;;10467444;22;20421;-78
2023/01/13 20:03:34;;;;;;;51.93;23.00;;;6.60;99.90;;;;;;10402443;28;20037;-78
2023/01/13 20:08:35;;;;;;;58.27;25.10;;;6.60;99.90;;;;;;10400914;28;20116;-79
2023/01/13 20:13:36;;;;;;;51.87;24.13;;;6.50;99.90;;;;;;10399441;28;20519;-81
2023/01/13 20:18:37;;;;;;;50.50;22.93;;;6.50;99.90;;;;;;10398140;28;20076;-79
2023/01/13 20:23:37;;;;;;;35.00;16.27;;;6.50;99.90;;;;;;10403197;28;20392;-80
2023/01/13 20:28:38;;;;;;;32.90;16.93;;;6.50;99.90;;;;;;10394635;28;20026;-79
2023/01/13 20:33:39;;;;;;;0.63;0.63;;;6.40;99.90;;;;;;10387591;28;20029;-79
2023/01/13 20:38:41;;;;;;;0.20;0.20;;;6.40;99.90;;;;;;10379991;28;20046;-79
2023/01/13 20:43:41;;;;;;;0.10;0.10;;;6.40;99.90;;;;;;10397342;28;20494;-80
2023/01/13 20:48:42;;;;;;;0.20;0.20;;;6.40;99.90;;;;;;10402011;28;20044;-78
2023/01/13 20:53:43;;;;;;;0.20;0.20;;;6.30;99.90;;;;;;10409033;28;20091;-83
2023/01/13 20:58:43;;;;;;;0.00;0.00;;;6.20;99.90;;;;;;10413803;28;20049;-79
2023/01/13 21:03:44;;;;;;;0.10;0.10;;;6.20;99.90;;;;;;10438714;28;20868;-79
2023/01/13 21:08:46;;;;;;;2.57;2.37;;;6.20;99.90;;;;;;10453373;28;20044;-81
2023/01/13 21:19:06;;;;;;;4.17;1.50;;;6.10;99.90;;;;;;10438620;28;20045;-79
2023/01/13 21:24:06;;;;;;;0.20;0.20;;;6.10;99.90;;;;;;10439936;28;20037;-79
2023/01/13 21:29:07;;;;;;;0.00;0.00;;;6.20;99.90;;;;;;10400556;28;20477;-80
2023/01/13 21:34:09;;;;;;;0.00;0.00;;;6.20;99.90;;;;;;10411135;28;20029;-77
2023/01/13 21:39:09;;;;;;;1.70;1.60;;;6.20;99.90;;;;;;10410449;28;20036;-79
2023/01/13 21:49:37;;;;;;;0.13;0.13;;;6.20;99.90;;;;;;10438821;28;20049;-81
2023/01/13 21:55:15;;;;;;;0.63;0.63;;;6.20;99.90;;;;;;10431331;28;20067;-80
2023/01/13 21:59:58;;;;;;;0.57;0.57;;;6.10;99.90;;;;;;10437461;28;20060;-80
2023/01/13 22:05:00;;;;;;;5.53;0.90;;;6.10;99.90;;;;;;10445326;28;20037;-83
2023/01/13 22:10:01;;;;;;;3.97;1.60;;;6.20;99.90;;;;;;10443825;28;20056;-82
2023/01/13 22:15:02;;;;;;;0.80;0.80;;;6.10;99.90;;;;;;10417997;28;20045;-83
2023/01/13 22:20:03;;;;;;;0.10;0.10;;;6.10;99.90;;;;;;10432261;28;20099;-81
2023/01/13 22:25:07;;;;;;;2.00;1.70;;;6.10;99.90;;;;;;10444002;28;20051;-79
2023/01/13 22:30:14;;;;;;;1.37;0.87;;;6.10;99.90;;;;;;10438075;28;20036;-80
2023/01/13 22:35:15;;;;;;;3.63;1.67;;;6.10;99.90;;;;;;10424918;28;20029;-80
2023/01/13 22:40:16;;;;;;;2.73;1.53;;;6.00;99.90;;;;;;10442660;28;20048;-79
2023/01/13 22:45:16;;;;;;;2.00;1.47;;;6.00;99.90;;;;;;10441012;28;20025;-78
2023/01/13 22:50:19;;;;;;;0.93;0.93;;;5.90;99.90;;;;;;10438781;28;20036;-78
2023/01/13 22:55:20;;;;;;;1.10;1.10;;;5.90;99.90;;;;;;10439851;28;20132;-79
2023/01/13 23:00:20;;;;;;;1.23;1.17;;;5.80;99.90;;;;;;10440749;28;20053;-78
2023/01/13 23:05:21;;;;;;;0.50;0.50;;;5.80;99.90;;;;;;10442034;28;20025;-81
2023/01/13 23:10:21;;;;;;;0.77;0.77;;;5.80;99.90;;;;;;10441894;28;20032;-78
2023/01/13 23:15:22;;;;;;;5.43;3.67;;;5.80;99.90;;;;;;10440792;28;20060;-82
2023/01/13 23:20:22;;;;;;;0.40;0.40;;;5.70;99.90;;;;;;10439445;28;20052;-79
2023/01/13 23:25:24;;;;;;;0.40;0.40;;;5.70;99.90;;;;;;10439498;28;20037;-81
2023/01/13 23:30:24;;;;;;;3.77;1.00;;;5.70;99.90;;;;;;10442142;28;20191;-78
2023/01/13 23:35:25;;;;;;;0.77;0.77;;;5.70;99.90;;;;;;10442094;28;20089;-79
2023/01/13 23:40:25;;;;;;;0.97;0.97;;;5.70;99.90;;;;;;10439056;28;20037;-80
2023/01/13 23:45:26;;;;;;;2.93;2.73;;;5.60;99.90;;;;;;10428683;28;20052;-82
2023/01/13 23:50:26;;;;;;;0.37;0.37;;;5.60;99.90;;;;;;10439675;28;20025;-79
2023/01/13 23:55:27;;;;;;;2.73;0.50;;;5.60;99.90;;;;;;10440030;28;20094;-80
